Time;durP1;ratioP1;P1;durP2;ratioP2;P2;SDS_P1;SDS_P2;PMS_P1;PMS_P2;Temp;Humidity;BMP_temperature;BMP_pressure;BME280_temperature;BME280_humidity;BME280_pressure;Samples;Min_cycle;Max_cycle;Signal;HPM_P1;HPM_P2
2021/12/24 00:00:24;;;;;;;35.80;24.20;;;;;;;;;;2079627;28;20187;-57
2021/12/24 00:01:24;;;;;;;38.67;23.83;;;;;;;;;;2079826;28;20179;-55
2021/12/24 00:02:24;;;;;;;46.80;28.53;;;;;;;;;;2070123;28;20178;-55
2021/12/24 00:03:25;;;;;;;41.77;25.90;;;;;;;;;;2071314;28;20217;-55
2021/12/24 00:04:25;;;;;;;43.20;25.93;;;;;;;;;;2079860;28;20271;-56
2021/12/24 00:05:25;;;;;;;42.80;24.30;;;;;;;;;;2080041;28;20655;-56
2021/12/24 00:06:26;;;;;;;39.90;26.10;;;;;;;;;;2080477;28;20176;-53
2021/12/24 00:07:26;;;;;;;40.23;23.57;;;;;;;;;;2081109;28;20199;-54
2021/12/24 00:08:26;;;;;;;44.97;25.83;;;;;;;;;;2080501;28;20242;-55
2021/12/24 00:09:31;;;;;;;43.90;27.93;;;;;;;;;;2080983;28;20179;-56
2021/12/24 00:10:32;;;;;;;46.23;25.93;;;;;;;;;;2081696;28;20192;-54
2021/12/24 00:11:34;;;;;;;42.30;24.40;;;;;;;;;;2073057;28;20181;-55
2021/12/24 00:12:37;;;;;;;39.60;23.23;;;;;;;;;;2072317;28;20173;-55
2021/12/24 00:13:42;;;;;;;42.90;26.33;;;;;;;;;;2069160;28;20618;-55
2021/12/24 00:14:47;;;;;;;45.90;27.53;;;;;;;;;;2071967;28;20195;-53
2021/12/24 00:16:04;;;;;;;44.40;27.27;;;;;;;;;;2081669;28;20225;-52
2021/12/24 00:17:05;;;;;;;46.93;27.90;;;;;;;;;;2081622;28;20707;-57
2021/12/24 00:35:04;;;;;;;44.47;26.77;;;;;;;;;;2082814;28;20199;-54
2021/12/24 00:35:13;;;;;;;38.23;22.77;;;;;;;;;;2074923;28;20189;-58
2021/12/24 00:36:14;;;;;;;34.20;17.80;;;;;;;;;;2073799;28;20236;-53
2021/12/24 00:37:16;;;;;;;37.97;24.13;;;;;;;;;;2074677;28;20193;-53
2021/12/24 00:38:17;;;;;;;38.17;24.30;;;;;;;;;;2067982;28;20183;-54
2021/12/24 00:39:17;;;;;;;42.23;24.90;;;;;;;;;;2057203;28;20177;-53
2021/12/24 00:40:19;;;;;;;28.13;18.30;;;;;;;;;;2065577;28;20185;-54
2021/12/24 00:41:19;;;;;;;36.30;22.77;;;;;;;;;;2065544;28;20169;-53
2021/12/24 00:42:20;;;;;;;31.87;20.10;;;;;;;;;;2065632;28;20402;-55
2021/12/24 00:43:21;;;;;;;42.50;24.83;;;;;;;;;;2064097;28;20189;-55
2021/12/24 00:44:22;;;;;;;44.50;25.83;;;;;;;;;;2073110;28;20543;-54
2021/12/24 00:45:24;;;;;;;38.10;23.07;;;;;;;;;;2075201;28;20173;-53
2021/12/24 00:46:24;;;;;;;41.43;25.43;;;;;;;;;;2066400;28;20173;-56
2021/12/24 00:47:25;;;;;;;41.60;24.67;;;;;;;;;;2072664;28;20927;-53
2021/12/24 00:48:25;;;;;;;40.90;26.60;;;;;;;;;;2081492;28;20188;-55
2021/12/24 00:49:26;;;;;;;30.57;18.67;;;;;;;;;;2081131;28;20200;-56
2021/12/24 00:50:27;;;;;;;40.70;25.53;;;;;;;;;;2072542;28;20180;-56
2021/12/24 00:51:43;;;;;;;41.03;23.90;;;;;;;;;;2075125;28;20169;-54
2021/12/24 00:52:57;;;;;;;43.80;26.20;;;;;;;;;;2078064;28;20640;-53
2021/12/24 00:55:18;;;;;;;40.57;24.70;;;;;;;;;;2074259;28;20271;-53
2021/12/24 00:56:18;;;;;;;42.43;24.67;;;;;;;;;;2081380;28;20183;-59
2021/12/24 00:57:18;;;;;;;44.37;25.57;;;;;;;;;;2067916;28;20192;-53
2021/12/24 00:58:20;;;;;;;33.67;22.10;;;;;;;;;;2065821;28;20264;-55
2021/12/24 00:59:20;;;;;;;44.60;26.23;;;;;;;;;;2057128;28;20177;-52
2021/12/24 01:00:29;;;;;;;44.97;26.63;;;;;;;;;;2064710;28;20170;-56
2021/12/24 01:01:29;;;;;;;47.40;25.73;;;;;;;;;;2070159;28;20199;-56
2021/12/24 01:02:29;;;;;;;46.53;26.50;;;;;;;;;;2057261;28;20269;-56
2021/12/24 01:03:29;;;;;;;55.80;31.17;;;;;;;;;;2071505;28;20673;-54
2021/12/24 01:04:30;;;;;;;48.83;27.67;;;;;;;;;;2080354;28;20184;-58
2021/12/24 01:05:31;;;;;;;43.40;25.17;;;;;;;;;;2081786;28;20259;-57
2021/12/24 01:06:31;;;;;;;52.53;28.97;;;;;;;;;;2075719;28;20202;-58
2021/12/24 01:07:32;;;;;;;45.47;25.23;;;;;;;;;;2077418;28;20201;-57
2021/12/24 01:08:32;;;;;;;46.07;26.63;;;;;;;;;;2076960;28;20172;-56
2021/12/24 01:09:33;;;;;;;48.40;29.57;;;;;;;;;;2081330;28;20176;-58
2021/12/24 01:10:35;;;;;;;48.50;29.33;;;;;;;;;;2072534;28;20177;-58
2021/12/24 01:11:35;;;;;;;47.63;24.70;;;;;;;;;;2068830;28;20728;-55
2021/12/24 01:12:36;;;;;;;50.00;27.70;;;;;;;;;;2080622;28;20204;-57
2021/12/24 01:13:36;;;;;;;37.60;23.00;;;;;;;;;;2080807;28;20694;-55
2021/12/24 01:14:37;;;;;;;47.87;26.17;;;;;;;;;;2072551;28;20224;-57
2021/12/24 01:15:48;;;;;;;48.87;28.20;;;;;;;;;;2072530;28;20562;-57
2021/12/24 01:17:08;;;;;;;45.67;27.53;;;;;;;;;;2075817;28;20176;-56
2021/12/24 01:18:18;;;;;;;50.67;27.33;;;;;;;;;;2073191;28;20215;-59
2021/12/24 01:19:23;;;;;;;38.93;23.57;;;;;;;;;;2065735;28;20185;-57
2021/12/24 01:20:33;;;;;;;50.43;26.67;;;;;;;;;;2061192;28;20593;-58
2021/12/24 01:24:23;;;;;;;49.13;28.73;;;;;;;;;;2046158;29;20202;-60
2021/12/24 01:38:12;;;;;;;59.03;33.23;;;;;;;;;;2072037;28;20177;-58
2021/12/24 01:39:41;;;;;;;61.20;34.57;;;;;;;;;;2072887;28;20181;-56
2021/12/24 01:43:16;;;;;;;54.23;30.27;;;;;;;;;;2072308;28;20165;-55
2021/12/24 01:44:19;;;;;;;58.57;33.73;;;;;;;;;;2063383;28;20729;-56
2021/12/24 01:45:20;;;;;;;57.70;30.63;;;;;;;;;;2057879;28;20170;-55
2021/12/24 01:46:20;;;;;;;61.10;33.35;;;;;;;;;;2064191;28;20252;-57
2021/12/24 01:47:21;;;;;;;48.93;29.40;;;;;;;;;;2064179;28;20276;-58
2021/12/24 01:48:21;;;;;;;63.10;34.67;;;;;;;;;;2063541;28;20174;-56
2021/12/24 01:49:21;;;;;;;61.27;33.47;;;;;;;;;;2057760;28;20254;-57
2021/12/24 01:50:23;;;;;;;56.03;35.07;;;;;;;;;;2064122;28;20293;-55
2021/12/24 01:51:24;;;;;;;57.53;33.13;;;;;;;;;;2064041;28;20243;-57
2021/12/24 01:52:27;;;;;;;58.03;34.27;;;;;;;;;;2059716;28;20560;-57
2021/12/24 01:53:34;;;;;;;62.15;33.70;;;;;;;;;;2057807;28;20165;-57
2021/12/24 01:54:34;;;;;;;56.43;28.07;;;;;;;;;;2072361;28;20177;-58
2021/12/24 01:55:36;;;;;;;62.43;33.50;;;;;;;;;;2071060;28;20212;-58
2021/12/24 01:56:37;;;;;;;57.53;33.47;;;;;;;;;;2072372;28;20173;-58
2021/12/24 01:57:38;;;;;;;71.30;36.17;;;;;;;;;;2071079;28;20177;-58
2021/12/24 01:58:39;;;;;;;50.03;28.30;;;;;;;;;;2073024;28;20217;-57
2021/12/24 01:59:40;;;;;;;59.73;33.40;;;;;;;;;;2071913;28;20173;-56
2021/12/24 02:00:41;;;;;;;66.93;37.03;;;;;;;;;;2076438;28;20184;-56
2021/12/24 02:01:42;;;;;;;66.03;36.33;;;;;;;;;;2062837;28;20177;-62
2021/12/24 02:02:43;;;;;;;57.97;31.67;;;;;;;;;;2064154;28;20197;-58
2021/12/24 02:03:43;;;;;;;58.88;34.80;;;;;;;;;;2063620;28;20564;-57
2021/12/24 02:04:43;;;;;;;55.93;31.83;;;;;;;;;;2063896;28;20265;-53
2021/12/24 02:05:44;;;;;;;70.90;39.03;;;;;;;;;;2063827;28;20209;-58
2021/12/24 02:06:45;;;;;;;64.25;35.80;;;;;;;;;;2063728;28;20728;-57
2021/12/24 02:07:46;;;;;;;63.23;35.60;;;;;;;;;;2072687;28;20255;-56
2021/12/24 02:08:46;;;;;;;57.37;31.77;;;;;;;;;;2067698;28;20673;-58
2021/12/24 02:09:47;;;;;;;63.53;36.78;;;;;;;;;;2072942;28;20660;-55
2021/12/24 02:10:48;;;;;;;59.17;33.30;;;;;;;;;;2071932;28;20195;-55
2021/12/24 02:11:49;;;;;;;64.93;36.77;;;;;;;;;;2076146;28;20180;-56
2021/12/24 02:12:50;;;;;;;71.37;35.37;;;;;;;;;;2072122;28;20185;-56
2021/12/24 02:13:52;;;;;;;68.10;35.33;;;;;;;;;;2067269;28;20740;-58
2021/12/24 02:14:56;;;;;;;60.33;34.77;;;;;;;;;;2064193;28;20165;-57
2021/12/24 02:28:40;;;;;;;49.75;27.67;;;;;;;;;;2032229;28;20205;-56
2021/12/24 02:29:42;;;;;;;52.40;31.70;;;;;;;;;;2064932;28;20178;-57
2021/12/24 02:30:43;;;;;;;50.00;26.00;;;;;;;;;;2072542;28;20223;-58
2021/12/24 02:31:43;;;;;;;53.25;29.38;;;;;;;;;;2068867;28;20227;-58
2021/12/24 02:32:43;;;;;;;55.45;32.13;;;;;;;;;;2081697;28;20558;-57
2021/12/24 02:33:44;;;;;;;51.30;29.83;;;;;;;;;;2076932;28;20173;-58
2021/12/24 02:34:44;;;;;;;48.65;27.25;;;;;;;;;;2064209;28;20642;-59
2021/12/24 02:35:45;;;;;;;54.37;29.37;;;;;;;;;;2068670;28;20188;-58
2021/12/24 02:36:45;;;;;;;46.77;25.77;;;;;;;;;;2080522;28;20270;-58
2021/12/24 02:37:45;;;;;;;52.10;31.00;;;;;;;;;;2071683;28;20185;-60
2021/12/24 02:38:46;;;;;;;54.95;30.40;;;;;;;;;;2070978;28;20260;-52
2021/12/24 02:39:46;;;;;;;55.57;33.53;;;;;;;;;;2071543;28;20180;-54
2021/12/24 02:40:47;;;;;;;50.28;27.05;;;;;;;;;;2061642;28;20182;-56
2021/12/24 02:41:47;;;;;;;56.47;30.77;;;;;;;;;;2064379;28;20264;-54
2021/12/24 02:42:50;;;;;;;61.08;32.88;;;;;;;;;;2071462;28;20873;-52
2021/12/24 02:43:51;;;;;;;58.92;33.30;;;;;;;;;;2064194;28;20209;-53
2021/12/24 02:44:51;;;;;;;49.25;29.27;;;;;;;;;;2055775;28;20186;-56
2021/12/24 02:45:56;;;;;;;60.37;32.50;;;;;;;;;;2065137;28;20201;-55
2021/12/24 02:49:10;;;;;;;42.95;23.63;;;;;;;;;;2064179;28;20253;-54
2021/12/24 02:54:14;;;;;;;48.03;27.55;;;;;;;;;;2071384;28;20195;-53
2021/12/24 02:55:15;;;;;;;45.47;26.23;;;;;;;;;;2063434;28;20186;-52
2021/12/24 02:56:16;;;;;;;48.45;27.08;;;;;;;;;;2072897;28;20204;-54
2021/12/24 02:57:20;;;;;;;47.53;27.80;;;;;;;;;;2071914;28;20255;-52
2021/12/24 02:58:20;;;;;;;52.63;28.23;;;;;;;;;;2063839;28;20229;-56
2021/12/24 02:59:28;;;;;;;50.95;29.85;;;;;;;;;;2055325;28;20177;-57
2021/12/24 03:00:29;;;;;;;41.67;23.80;;;;;;;;;;2055365;28;20186;-55
2021/12/24 03:01:31;;;;;;;46.53;28.02;;;;;;;;;;2073195;28;20180;-52
2021/12/24 03:02:33;;;;;;;47.70;27.02;;;;;;;;;;2080624;28;20208;-54
2021/12/24 03:03:33;;;;;;;52.57;26.43;;;;;;;;;;2061167;28;20177;-52
2021/12/24 03:04:34;;;;;;;49.57;25.83;;;;;;;;;;2071683;28;20181;-53
2021/12/24 03:05:34;;;;;;;49.30;29.00;;;;;;;;;;2063573;28;20208;-53
2021/12/24 03:06:36;;;;;;;49.75;29.33;;;;;;;;;;2068547;28;20732;-56
2021/12/24 03:07:36;;;;;;;46.80;25.23;;;;;;;;;;2071761;28;20193;-53
2021/12/24 03:08:36;;;;;;;43.75;23.58;;;;;;;;;;2063555;28;20706;-54
2021/12/24 03:09:36;;;;;;;39.38;23.90;;;;;;;;;;2065117;28;20197;-57
2021/12/24 03:10:37;;;;;;;45.60;26.38;;;;;;;;;;2068415;28;20177;-59
2021/12/24 03:11:37;;;;;;;43.95;23.88;;;;;;;;;;2071980;28;20643;-57
2021/12/24 03:12:37;;;;;;;48.85;27.20;;;;;;;;;;2071795;28;20168;-58
2021/12/24 03:13:38;;;;;;;36.13;21.77;;;;;;;;;;2068023;28;20311;-58
2021/12/24 03:14:39;;;;;;;44.90;25.60;;;;;;;;;;2063000;28;20177;-57
2021/12/24 03:15:39;;;;;;;45.40;26.05;;;;;;;;;;2068093;28;20176;-56
2021/12/24 03:16:40;;;;;;;42.70;24.07;;;;;;;;;;2067879;28;20927;-57
2021/12/24 03:17:49;;;;;;;47.35;25.17;;;;;;;;;;2068390;28;20187;-57
2021/12/24 03:18:51;;;;;;;43.28;24.08;;;;;;;;;;2072560;28;20177;-57
2021/12/24 03:19:57;;;;;;;46.97;28.50;;;;;;;;;;2072044;28;20160;-56
2021/12/24 03:21:08;;;;;;;48.67;28.30;;;;;;;;;;2072051;28;20183;-59
2021/12/24 03:23:35;;;;;;;49.50;27.48;;;;;;;;;;2065092;28;20173;-56
2021/12/24 03:24:36;;;;;;;38.63;21.43;;;;;;;;;;2074356;28;20612;-57
2021/12/24 03:25:37;;;;;;;50.47;28.27;;;;;;;;;;2078725;28;20235;-59
2021/12/24 03:26:38;;;;;;;37.08;22.48;;;;;;;;;;2076230;28;20180;-54
2021/12/24 03:27:39;;;;;;;51.80;27.17;;;;;;;;;;2071585;28;20641;-58
2021/12/24 03:28:40;;;;;;;43.03;22.42;;;;;;;;;;2072447;28;20173;-57
2021/12/24 03:29:41;;;;;;;44.30;26.65;;;;;;;;;;2072041;28;20177;-57
2021/12/24 03:30:41;;;;;;;49.00;27.40;;;;;;;;;;2073050;28;20169;-58
2021/12/24 03:31:41;;;;;;;35.42;22.42;;;;;;;;;;2072464;28;20173;-56
2021/12/24 03:32:42;;;;;;;50.28;28.50;;;;;;;;;;2076517;28;20320;-58
2021/12/24 03:33:42;;;;;;;45.00;27.15;;;;;;;;;;2067230;28;20189;-56
2021/12/24 03:34:43;;;;;;;41.58;23.42;;;;;;;;;;2055356;28;20182;-58
2021/12/24 03:35:43;;;;;;;33.15;20.67;;;;;;;;;;2063698;28;20174;-57
2021/12/24 03:36:44;;;;;;;46.95;25.50;;;;;;;;;;2072354;28;20181;-59
2021/12/24 03:37:46;;;;;;;51.15;30.10;;;;;;;;;;2055899;28;20574;-58
2021/12/24 03:38:47;;;;;;;50.85;29.95;;;;;;;;;;2064672;28;20296;-56
2021/12/24 03:39:47;;;;;;;43.00;25.47;;;;;;;;;;2079086;28;20199;-58
2021/12/24 03:40:48;;;;;;;40.67;22.13;;;;;;;;;;2081538;28;20204;-58
2021/12/24 03:41:48;;;;;;;50.00;29.15;;;;;;;;;;2072585;28;20260;-55
2021/12/24 03:42:48;;;;;;;51.43;25.70;;;;;;;;;;2063882;28;20186;-56
2021/12/24 03:43:49;;;;;;;54.90;30.80;;;;;;;;;;2063838;28;20173;-58
2021/12/24 03:44:58;;;;;;;53.07;30.77;;;;;;;;;;2064520;28;20261;-55
2021/12/24 03:46:02;;;;;;;54.95;30.20;;;;;;;;;;2069645;28;20197;-59
2021/12/24 03:47:09;;;;;;;42.90;24.17;;;;;;;;;;2073759;28;20283;-59
2021/12/24 03:48:17;;;;;;;47.72;25.63;;;;;;;;;;2073951;28;20219;-58
2021/12/24 03:49:30;;;;;;;57.03;27.95;;;;;;;;;;2081671;28;20211;-58
2021/12/24 03:51:57;;;;;;;52.67;28.20;;;;;;;;;;2068108;28;20176;-59
2021/12/24 03:54:55;;;;;;;54.95;29.52;;;;;;;;;;2073446;28;20632;-58
2021/12/24 03:55:42;;;;;;;46.27;26.53;;;;;;;;;;2083755;28;20671;-58
2021/12/24 03:56:43;;;;;;;38.95;22.27;;;;;;;;;;2073165;28;20211;-58
2021/12/24 03:57:54;;;;;;;46.55;26.60;;;;;;;;;;2073319;28;20262;-57
2021/12/24 03:59:13;;;;;;;50.53;28.00;;;;;;;;;;2067585;28;20177;-58
2021/12/24 04:00:45;;;;;;;53.50;28.35;;;;;;;;;;2079476;28;20180;-58
2021/12/24 04:01:58;;;;;;;46.38;26.10;;;;;;;;;;2082518;28;20558;-58
2021/12/24 04:03:18;;;;;;;44.38;23.92;;;;;;;;;;2074563;28;20259;-58
2021/12/24 04:04:18;;;;;;;49.05;29.27;;;;;;;;;;2080707;28;20188;-56
2021/12/24 04:05:38;;;;;;;51.85;26.40;;;;;;;;;;2082610;28;20573;-58
2021/12/24 04:06:57;;;;;;;33.50;18.88;;;;;;;;;;2081004;28;20633;-55
2021/12/24 04:08:36;;;;;;;45.60;25.13;;;;;;;;;;2080776;28;20208;-57
2021/12/24 04:10:08;;;;;;;32.42;18.52;;;;;;;;;;2070492;28;20196;-58
2021/12/24 04:11:27;;;;;;;43.25;24.80;;;;;;;;;;2079318;28;20207;-57
2021/12/24 04:12:29;;;;;;;49.63;28.42;;;;;;;;;;2073741;28;20175;-57
2021/12/24 04:13:29;;;;;;;45.08;25.02;;;;;;;;;;2072920;28;20169;-58
2021/12/24 04:14:30;;;;;;;53.75;28.25;;;;;;;;;;2073164;28;20184;-58
2021/12/24 04:15:32;;;;;;;45.65;25.23;;;;;;;;;;2076808;28;20171;-57
2021/12/24 04:16:33;;;;;;;47.45;26.45;;;;;;;;;;2067697;28;20205;-58
2021/12/24 04:17:41;;;;;;;44.05;23.30;;;;;;;;;;2065972;28;20542;-57
2021/12/24 04:18:55;;;;;;;32.60;20.00;;;;;;;;;;2054167;28;20533;-59
2021/12/24 04:25:11;;;;;;;40.92;19.58;;;;;;;;;;2075636;28;20173;-59
2021/12/24 04:26:12;;;;;;;51.35;26.55;;;;;;;;;;2077259;28;20279;-56
2021/12/24 04:27:12;;;;;;;55.97;29.38;;;;;;;;;;2065159;28;20196;-58
2021/12/24 04:28:12;;;;;;;53.28;29.20;;;;;;;;;;2064650;28;20269;-58
2021/12/24 04:29:13;;;;;;;55.80;27.60;;;;;;;;;;2064835;28;20546;-59
2021/12/24 04:30:22;;;;;;;48.58;26.95;;;;;;;;;;2057890;28;20186;-58
2021/12/24 04:31:39;;;;;;;46.22;23.42;;;;;;;;;;2066618;28;20185;-58
2021/12/24 04:33:12;;;;;;;43.08;24.60;;;;;;;;;;2077507;28;20169;-57
2021/12/24 04:34:13;;;;;;;41.65;22.15;;;;;;;;;;2080697;28;20172;-58
2021/12/24 04:35:31;;;;;;;33.88;18.25;;;;;;;;;;2073178;28;20612;-59
2021/12/24 04:38:47;;;;;;;37.15;22.77;;;;;;;;;;2074547;28;20176;-60
2021/12/24 04:51:00;;;;;;;43.00;24.20;;;;;;;;;;2066135;28;20568;-59
2021/12/24 04:51:02;;;;;;;29.42;17.85;;;;;;;;;;2067149;28;20277;-59
2021/12/24 04:51:58;;;;;;;28.77;18.55;;;;;;;;;;2073135;28;20188;-58
2021/12/24 05:01:52;;;;;;;28.58;18.08;;;;;;;;;;2079216;28;20226;-59
2021/12/24 05:03:01;;;;;;;25.70;17.88;;;;;;;;;;2078073;28;20601;-59
2021/12/24 05:04:04;;;;;;;28.70;18.70;;;;;;;;;;2073907;28;20192;-58
2021/12/24 05:05:18;;;;;;;25.25;16.05;;;;;;;;;;2072228;28;20181;-61
2021/12/24 05:08:40;;;;;;;25.27;17.75;;;;;;;;;;2065314;28;20161;-58
2021/12/24 05:09:42;;;;;;;29.77;17.33;;;;;;;;;;2073579;28;20185;-58
2021/12/24 05:10:42;;;;;;;24.70;15.35;;;;;;;;;;2085402;28;20667;-60
2021/12/24 05:11:45;;;;;;;22.83;14.27;;;;;;;;;;2075520;28;20704;-58
2021/12/24 05:12:45;;;;;;;24.43;17.13;;;;;;;;;;2062838;28;20178;-56
2021/12/24 05:13:47;;;;;;;20.92;14.48;;;;;;;;;;2066138;28;20780;-59
2021/12/24 05:14:58;;;;;;;22.88;15.02;;;;;;;;;;2063974;28;20185;-58
2021/12/24 05:22:33;;;;;;;20.45;13.55;;;;;;;;;;2074912;28;20180;-58
2021/12/24 05:23:40;;;;;;;19.52;13.48;;;;;;;;;;2072549;28;20172;-58
2021/12/24 05:24:40;;;;;;;24.80;16.42;;;;;;;;;;2072459;28;20196;-58
2021/12/24 05:25:44;;;;;;;22.48;15.25;;;;;;;;;;2069140;28;20244;-61
2021/12/24 05:26:46;;;;;;;19.60;14.50;;;;;;;;;;2064653;28;20188;-59
2021/12/24 05:27:46;;;;;;;25.92;15.88;;;;;;;;;;2069662;28;20185;-58
2021/12/24 05:28:47;;;;;;;20.90;14.90;;;;;;;;;;2069594;28;20180;-58
2021/12/24 05:29:47;;;;;;;21.25;14.55;;;;;;;;;;2070628;28;20256;-59
2021/12/24 05:30:48;;;;;;;26.58;17.63;;;;;;;;;;2072292;28;20201;-59
2021/12/24 05:31:49;;;;;;;24.42;14.30;;;;;;;;;;2064569;28;20677;-59
2021/12/24 05:32:49;;;;;;;25.27;16.23;;;;;;;;;;2069745;28;20224;-58
2021/12/24 05:33:50;;;;;;;27.48;16.25;;;;;;;;;;2072487;28;20268;-56
2021/12/24 05:34:50;;;;;;;28.63;19.02;;;;;;;;;;2071996;28;20279;-58
2021/12/24 05:35:51;;;;;;;26.52;17.25;;;;;;;;;;2081706;28;20306;-56
2021/12/24 05:36:51;;;;;;;23.52;15.77;;;;;;;;;;2070171;28;20201;-60
2021/12/24 05:37:51;;;;;;;33.40;18.95;;;;;;;;;;2062172;28;20181;-58
2021/12/24 05:38:52;;;;;;;26.27;17.60;;;;;;;;;;2064332;28;20208;-60
2021/12/24 05:39:53;;;;;;;29.88;18.35;;;;;;;;;;2064756;28;20197;-58
2021/12/24 05:40:59;;;;;;;26.88;18.55;;;;;;;;;;2060551;28;20246;-57
2021/12/24 05:41:59;;;;;;;29.80;19.23;;;;;;;;;;2072201;28;20173;-57
2021/12/24 05:43:00;;;;;;;30.10;18.67;;;;;;;;;;2076642;28;20688;-58
2021/12/24 05:44:03;;;;;;;30.63;19.10;;;;;;;;;;2070891;28;20193;-59
2021/12/24 05:45:06;;;;;;;30.35;19.35;;;;;;;;;;2071268;28;20173;-59
2021/12/24 05:46:25;;;;;;;30.50;19.63;;;;;;;;;;2061478;28;20628;-57
2021/12/24 05:47:36;;;;;;;33.28;20.83;;;;;;;;;;2091674;23;21380;-57
2021/12/24 05:48:40;;;;;;;28.63;17.52;;;;;;;;;;2064882;28;21836;-56
2021/12/24 05:49:43;;;;;;;28.08;17.75;;;;;;;;;;2068187;28;20176;-59
2021/12/24 05:51:06;;;;;;;26.08;17.80;;;;;;;;;;2059585;28;20177;-59
2021/12/24 05:52:26;;;;;;;27.90;18.60;;;;;;;;;;2080228;28;20221;-58
2021/12/24 05:53:35;;;;;;;31.20;20.55;;;;;;;;;;2076930;28;20226;-60
2021/12/24 05:54:44;;;;;;;25.30;16.63;;;;;;;;;;2067927;28;20178;-57
2021/12/24 05:55:51;;;;;;;30.40;20.20;;;;;;;;;;2074121;28;20324;-57
2021/12/24 05:56:55;;;;;;;25.30;16.73;;;;;;;;;;2072615;28;20211;-57
2021/12/24 05:57:55;;;;;;;29.63;18.35;;;;;;;;;;2064879;28;20197;-58
2021/12/24 05:58:56;;;;;;;29.83;18.55;;;;;;;;;;2072337;28;20247;-57
2021/12/24 05:59:57;;;;;;;27.30;16.60;;;;;;;;;;2072807;28;20230;-57
2021/12/24 06:00:58;;;;;;;30.60;19.67;;;;;;;;;;2070322;28;20697;-58
2021/12/24 06:02:08;;;;;;;25.55;17.63;;;;;;;;;;2066270;28;20721;-60
2021/12/24 06:03:09;;;;;;;26.25;16.83;;;;;;;;;;2073407;28;20181;-60
2021/12/24 06:04:10;;;;;;;28.95;19.20;;;;;;;;;;2081638;28;20633;-60
2021/12/24 06:05:10;;;;;;;27.63;18.25;;;;;;;;;;2080208;28;20189;-59
2021/12/24 06:06:10;;;;;;;32.83;18.60;;;;;;;;;;2080912;28;20698;-57
2021/12/24 06:07:11;;;;;;;31.80;18.85;;;;;;;;;;2073815;28;20173;-56
2021/12/24 06:08:11;;;;;;;27.90;18.30;;;;;;;;;;2081415;28;20164;-58
2021/12/24 06:09:11;;;;;;;23.30;15.35;;;;;;;;;;2081535;28;20663;-58
2021/12/24 06:10:12;;;;;;;24.48;17.20;;;;;;;;;;2081487;28;20656;-59
2021/12/24 06:11:12;;;;;;;30.10;20.23;;;;;;;;;;2080926;28;20629;-59
2021/12/24 06:12:12;;;;;;;26.58;18.48;;;;;;;;;;2081271;28;20636;-57
2021/12/24 06:13:12;;;;;;;29.77;20.48;;;;;;;;;;2072848;28;20169;-60
2021/12/24 06:14:13;;;;;;;28.13;19.17;;;;;;;;;;2072735;28;20268;-58
2021/12/24 06:15:16;;;;;;;21.75;14.88;;;;;;;;;;2072752;28;20188;-57
2021/12/24 06:16:17;;;;;;;29.83;19.63;;;;;;;;;;2072775;28;20208;-59
2021/12/24 06:17:18;;;;;;;28.23;19.35;;;;;;;;;;2072822;28;20184;-56
2021/12/24 06:18:25;;;;;;;30.85;19.45;;;;;;;;;;2081842;28;20951;-59
2021/12/24 06:19:26;;;;;;;27.88;18.23;;;;;;;;;;2081401;28;20247;-58
2021/12/24 06:20:26;;;;;;;28.25;19.52;;;;;;;;;;2081709;28;20628;-58
2021/12/24 06:21:27;;;;;;;30.63;19.75;;;;;;;;;;2081732;28;20192;-56
2021/12/24 06:22:27;;;;;;;26.77;18.40;;;;;;;;;;2081038;28;20223;-59
2021/12/24 06:23:28;;;;;;;29.00;20.52;;;;;;;;;;2081615;28;20172;-61
2021/12/24 06:24:28;;;;;;;28.70;19.02;;;;;;;;;;2081152;28;20207;-58
2021/12/24 06:25:28;;;;;;;31.17;18.33;;;;;;;;;;2081053;28;20180;-58
2021/12/24 06:26:29;;;;;;;26.67;18.70;;;;;;;;;;2080657;28;20259;-58
2021/12/24 06:27:30;;;;;;;23.73;16.27;;;;;;;;;;2080818;28;20200;-59
2021/12/24 06:28:30;;;;;;;27.05;18.88;;;;;;;;;;2081268;28;20196;-58
2021/12/24 06:29:31;;;;;;;27.38;18.60;;;;;;;;;;2071449;28;20181;-54
2021/12/24 06:30:31;;;;;;;29.75;17.60;;;;;;;;;;2064210;28;20207;-56
2021/12/24 06:31:31;;;;;;;25.92;18.75;;;;;;;;;;2064631;28;20181;-58
2021/12/24 06:32:32;;;;;;;26.98;19.50;;;;;;;;;;2064625;28;20185;-60
2021/12/24 06:33:32;;;;;;;36.42;20.20;;;;;;;;;;2072596;28;20177;-57
2021/12/24 06:34:33;;;;;;;29.50;19.23;;;;;;;;;;2080935;28;20169;-56
2021/12/24 06:35:33;;;;;;;28.48;18.77;;;;;;;;;;2081311;28;20672;-57
2021/12/24 06:36:37;;;;;;;26.48;17.85;;;;;;;;;;2081491;28;20168;-58
2021/12/24 06:37:37;;;;;;;27.58;18.35;;;;;;;;;;2081288;28;20204;-55
2021/12/24 06:38:38;;;;;;;26.73;16.70;;;;;;;;;;2081433;28;20229;-58
2021/12/24 06:39:38;;;;;;;26.23;16.77;;;;;;;;;;2080605;28;21078;-59
2021/12/24 06:40:38;;;;;;;27.33;19.00;;;;;;;;;;2081134;28;20184;-59
2021/12/24 06:41:39;;;;;;;24.48;18.67;;;;;;;;;;2080614;28;20663;-58
2021/12/24 06:42:39;;;;;;;19.98;13.48;;;;;;;;;;2081271;28;20357;-57
2021/12/24 06:43:39;;;;;;;26.30;15.63;;;;;;;;;;2072002;28;20571;-60
2021/12/24 06:44:39;;;;;;;24.63;16.48;;;;;;;;;;2071759;28;20177;-55
2021/12/24 06:45:40;;;;;;;22.83;15.02;;;;;;;;;;2081315;28;20180;-58
2021/12/24 06:46:41;;;;;;;29.08;18.20;;;;;;;;;;2081492;28;20191;-57
2021/12/24 06:47:41;;;;;;;25.02;17.52;;;;;;;;;;2081358;28;20211;-57
2021/12/24 06:48:41;;;;;;;25.83;17.05;;;;;;;;;;2080556;28;20177;-58
2021/12/24 06:49:42;;;;;;;29.95;18.08;;;;;;;;;;2072241;28;20177;-57
2021/12/24 06:50:42;;;;;;;23.02;15.82;;;;;;;;;;2072614;28;20255;-59
2021/12/24 06:51:43;;;;;;;27.85;18.27;;;;;;;;;;2081190;28;20255;-58
2021/12/24 06:52:43;;;;;;;27.50;18.95;;;;;;;;;;2081298;28;20168;-61
2021/12/24 06:53:43;;;;;;;24.98;16.35;;;;;;;;;;2081474;28;20173;-59
2021/12/24 06:54:44;;;;;;;22.52;16.33;;;;;;;;;;2072071;28;20184;-59
2021/12/24 06:55:47;;;;;;;25.35;18.63;;;;;;;;;;2063060;28;20696;-58
2021/12/24 06:56:48;;;;;;;28.38;17.63;;;;;;;;;;2064458;28;20233;-59
2021/12/24 06:57:49;;;;;;;25.70;17.60;;;;;;;;;;2072117;28;20721;-58
2021/12/24 06:58:50;;;;;;;29.27;19.63;;;;;;;;;;2063407;28;20213;-56
2021/12/24 06:59:51;;;;;;;29.80;21.38;;;;;;;;;;2063740;28;20213;-56
2021/12/24 07:00:52;;;;;;;27.92;20.25;;;;;;;;;;2070109;28;20667;-58
2021/12/24 07:01:53;;;;;;;32.30;21.48;;;;;;;;;;2074752;28;20176;-59
2021/12/24 07:02:54;;;;;;;35.60;20.30;;;;;;;;;;2072501;28;20180;-57
2021/12/24 07:03:54;;;;;;;29.05;21.20;;;;;;;;;;2081519;28;20641;-56
2021/12/24 07:04:54;;;;;;;32.28;21.70;;;;;;;;;;2079410;28;20184;-56
2021/12/24 07:05:54;;;;;;;30.75;20.27;;;;;;;;;;2080549;28;20207;-57
2021/12/24 07:06:55;;;;;;;30.80;19.55;;;;;;;;;;2066030;28;20599;-57
2021/12/24 07:07:55;;;;;;;33.97;23.80;;;;;;;;;;2072396;28;20690;-58
2021/12/24 07:08:56;;;;;;;33.30;21.48;;;;;;;;;;2080973;28;20187;-53
2021/12/24 07:09:57;;;;;;;31.38;19.58;;;;;;;;;;2081197;28;20168;-58
2021/12/24 07:10:58;;;;;;;31.38;21.23;;;;;;;;;;2080779;28;20187;-57
2021/12/24 07:11:58;;;;;;;30.70;21.13;;;;;;;;;;2073791;28;20172;-56
2021/12/24 07:12:58;;;;;;;37.58;22.25;;;;;;;;;;2078867;28;20176;-59
2021/12/24 07:13:58;;;;;;;29.35;19.75;;;;;;;;;;2080910;28;20227;-58
2021/12/24 07:14:59;;;;;;;33.20;21.55;;;;;;;;;;2080868;28;20191;-56
2021/12/24 07:15:59;;;;;;;35.03;21.77;;;;;;;;;;2081586;28;20211;-59
2021/12/24 07:16:59;;;;;;;32.50;21.30;;;;;;;;;;2081271;28;20160;-58
2021/12/24 07:17:59;;;;;;;32.80;20.38;;;;;;;;;;2081423;28;20935;-56
2021/12/24 07:19:00;;;;;;;30.92;20.30;;;;;;;;;;2081030;28;20176;-58
2021/12/24 07:20:00;;;;;;;28.40;19.33;;;;;;;;;;2082828;28;20192;-57
2021/12/24 07:21:01;;;;;;;32.97;20.75;;;;;;;;;;2082767;28;20180;-59
2021/12/24 07:22:02;;;;;;;29.50;19.08;;;;;;;;;;2082833;28;20670;-58
2021/12/24 07:23:03;;;;;;;34.45;21.38;;;;;;;;;;2078648;28;20168;-55
2021/12/24 07:24:04;;;;;;;33.25;22.77;;;;;;;;;;2074716;28;20176;-58
2021/12/24 07:25:06;;;;;;;30.25;19.20;;;;;;;;;;2078188;28;20180;-55
2021/12/24 07:26:06;;;;;;;30.88;20.88;;;;;;;;;;2082848;28;20199;-58
2021/12/24 07:27:06;;;;;;;33.00;21.10;;;;;;;;;;2082921;28;20211;-56
2021/12/24 07:28:06;;;;;;;31.27;22.60;;;;;;;;;;2082787;28;20764;-58
2021/12/24 07:29:07;;;;;;;29.55;19.92;;;;;;;;;;2082615;28;20165;-57
2021/12/24 07:30:10;;;;;;;33.33;22.20;;;;;;;;;;2082371;28;20172;-59
2021/12/24 07:31:10;;;;;;;35.13;21.30;;;;;;;;;;2074534;28;20161;-58
2021/12/24 07:32:10;;;;;;;32.22;20.67;;;;;;;;;;2075327;28;20173;-56
2021/12/24 07:33:14;;;;;;;36.85;22.77;;;;;;;;;;2083309;28;20617;-57
2021/12/24 07:34:14;;;;;;;29.65;19.42;;;;;;;;;;2082874;28;20164;-57
2021/12/24 07:35:16;;;;;;;33.58;21.13;;;;;;;;;;2082810;28;20664;-57
2021/12/24 07:36:17;;;;;;;34.55;21.80;;;;;;;;;;2083101;28;20649;-57
2021/12/24 07:37:17;;;;;;;33.22;20.92;;;;;;;;;;2083197;28;20230;-58
2021/12/24 07:38:17;;;;;;;41.15;21.60;;;;;;;;;;2083085;28;20218;-57
2021/12/24 07:39:17;;;;;;;29.75;20.83;;;;;;;;;;2082279;28;20168;-57